EDHI/XFW METAR and TAF weather

Enter ICAO airport designator
Station Type Date Time Source
EDHI METAR 2019/10/16 20:20 UTC NOAA

EDHI 162020Z AUTO 19008KT 9999 // OVC038/// 13/11 Q1008


Station Type Date Time Source
EDHI Decoded METAR 2019/10/16 20:20 UTC NOAA

Hamburg-Finkenwerder, Germany (EDHI) 53-32N 009-50E 13M
Oct 16, 2019 - 04:20 PM EDT / 2019.10.16 2020 UTC
Wind: from the S (190 degrees) at 9 MPH (8 KT):0
Visibility: greater than 7 mile(s):0
Sky conditions: overcast
Temperature: 55 F (13 C)
Dew Point: 51 F (11 C)
Relative Humidity: 87%
Pressure (altimeter): 29.77 in. Hg (1008 hPa)
ob: EDHI 162020Z AUTO 19008KT 9999 // OVC038/// 13/11 Q1008
cycle: 20

Station Type Date Time Source
EDHI TAF 2010/02/22 14:20 UTC NOAA

METAR EDHI 221420Z 17005KT 9999 BKN030 05/02 Q0989

Example: see airport list